sensor_id;sensor_type;location;lat;lon;timestamp;P1;durP1;ratioP1;P2;durP2;ratioP2
51848;SDS011;38952;51.090;-1.832;2022-09-06T00:00:14;0.20;;;0.10;;
51848;SDS011;38952;51.090;-1.832;2022-09-06T00:03:07;0.17;;;0.17;;
51848;SDS011;38952;51.090;-1.832;2022-09-06T00:05:43;0.10;;;0.10;;
51848;SDS011;38952;51.090;-1.832;2022-09-06T00:08:08;0.38;;;0.20;;
51848;SDS011;38952;51.090;-1.832;2022-09-06T00:10:34;0.10;;;0.10;;
51848;SDS011;38952;51.090;-1.832;2022-09-06T00:13:05;0.15;;;0.15;;
51848;SDS011;38952;51.090;-1.832;2022-09-06T00:15:32;0.28;;;0.28;;
51848;SDS011;38952;51.090;-1.832;2022-09-06T00:18:00;0.10;;;0.10;;
51848;SDS011;38952;51.090;-1.832;2022-09-06T00:20:27;0.08;;;0.08;;
51848;SDS011;38952;51.090;-1.832;2022-09-06T00:23:01;0.13;;;0.10;;
51848;SDS011;38952;51.090;-1.832;2022-09-06T00:25:28;0.10;;;0.10;;
51848;SDS011;38952;51.090;-1.832;2022-09-06T00:27:55;0.15;;;0.15;;
51848;SDS011;38952;51.090;-1.832;2022-09-06T00:30:23;0.28;;;0.20;;
51848;SDS011;38952;51.090;-1.832;2022-09-06T00:32:49;0.15;;;0.15;;
51848;SDS011;38952;51.090;-1.832;2022-09-06T00:35:15;0.17;;;0.17;;
51848;SDS011;38952;51.090;-1.832;2022-09-06T00:37:41;0.13;;;0.13;;
51848;SDS011;38952;51.090;-1.832;2022-09-06T00:40:07;0.40;;;0.40;;
51848;SDS011;38952;51.090;-1.832;2022-09-06T00:42:33;0.30;;;0.30;;
51848;SDS011;38952;51.090;-1.832;2022-09-06T00:44:58;0.30;;;0.30;;
51848;SDS011;38952;51.090;-1.832;2022-09-06T00:47:24;0.20;;;0.20;;
51848;SDS011;38952;51.090;-1.832;2022-09-06T00:49:52;0.30;;;0.20;;
51848;SDS011;38952;51.090;-1.832;2022-09-06T00:52:21;0.20;;;0.20;;
51848;SDS011;38952;51.090;-1.832;2022-09-06T00:54:47;0.20;;;0.20;;
51848;SDS011;38952;51.090;-1.832;2022-09-06T00:57:15;0.22;;;0.20;;
51848;SDS011;38952;51.090;-1.832;2022-09-06T00:59:42;0.20;;;0.20;;
51848;SDS011;38952;51.090;-1.832;2022-09-06T01:02:08;0.20;;;0.20;;
51848;SDS011;38952;51.090;-1.832;2022-09-06T01:04:35;0.20;;;0.20;;
51848;SDS011;38952;51.090;-1.832;2022-09-06T01:10:09;0.10;;;0.10;;
51848;SDS011;38952;51.090;-1.832;2022-09-06T01:15:34;0.20;;;0.20;;
51848;SDS011;38952;51.090;-1.832;2022-09-06T01:18:31;0.20;;;0.20;;
51848;SDS011;38952;51.090;-1.832;2022-09-06T01:21:19;0.13;;;0.13;;
51848;SDS011;38952;51.090;-1.832;2022-09-06T01:26:59;0.43;;;0.20;;
51848;SDS011;38952;51.090;-1.832;2022-09-06T01:32:40;0.20;;;0.20;;
51848;SDS011;38952;51.090;-1.832;2022-09-06T01:35:16;0.20;;;0.20;;
51848;SDS011;38952;51.090;-1.832;2022-09-06T01:38:01;0.30;;;0.30;;
51848;SDS011;38952;51.090;-1.832;2022-09-06T01:40:28;0.30;;;0.30;;
51848;SDS011;38952;51.090;-1.832;2022-09-06T01:42:53;0.30;;;0.30;;
51848;SDS011;38952;51.090;-1.832;2022-09-06T01:45:28;0.65;;;0.40;;
51848;SDS011;38952;51.090;-1.832;2022-09-06T01:48:11;0.35;;;0.35;;
51848;SDS011;38952;51.090;-1.832;2022-09-06T01:50:46;0.30;;;0.30;;
51848;SDS011;38952;51.090;-1.832;2022-09-06T01:53:30;0.47;;;0.40;;
51848;SDS011;38952;51.090;-1.832;2022-09-06T02:06:59;0.38;;;0.38;;
51848;SDS011;38952;51.090;-1.832;2022-09-06T02:09:28;0.40;;;0.40;;
51848;SDS011;38952;51.090;-1.832;2022-09-06T02:11:59;0.50;;;0.40;;
51848;SDS011;38952;51.090;-1.832;2022-09-06T02:14:32;0.30;;;0.30;;
51848;SDS011;38952;51.090;-1.832;2022-09-06T02:17:02;0.40;;;0.40;;
51848;SDS011;38952;51.090;-1.832;2022-09-06T02:19:40;0.60;;;0.60;;
51848;SDS011;38952;51.090;-1.832;2022-09-06T02:22:11;0.65;;;0.65;;
51848;SDS011;38952;51.090;-1.832;2022-09-06T02:24:41;1.00;;;0.85;;
51848;SDS011;38952;51.090;-1.832;2022-09-06T02:27:10;0.90;;;0.90;;
51848;SDS011;38952;51.090;-1.832;2022-09-06T02:29:36;0.82;;;0.82;;
51848;SDS011;38952;51.090;-1.832;2022-09-06T02:32:03;1.00;;;0.90;;
51848;SDS011;38952;51.090;-1.832;2022-09-06T02:34:37;1.30;;;1.20;;
51848;SDS011;38952;51.090;-1.832;2022-09-06T02:37:04;0.75;;;0.75;;
51848;SDS011;38952;51.090;-1.832;2022-09-06T02:39:30;0.82;;;0.82;;
51848;SDS011;38952;51.090;-1.832;2022-09-06T02:41:55;1.27;;;1.15;;
51848;SDS011;38952;51.090;-1.832;2022-09-06T02:44:21;0.65;;;0.65;;
51848;SDS011;38952;51.090;-1.832;2022-09-06T02:46:47;0.43;;;0.43;;
51848;SDS011;38952;51.090;-1.832;2022-09-06T02:49:12;0.47;;;0.47;;
51848;SDS011;38952;51.090;-1.832;2022-09-06T02:51:38;0.38;;;0.35;;
51848;SDS011;38952;51.090;-1.832;2022-09-06T02:54:04;0.55;;;0.50;;
51848;SDS011;38952;51.090;-1.832;2022-09-06T02:56:30;0.50;;;0.50;;
51848;SDS011;38952;51.090;-1.832;2022-09-06T02:58:58;0.50;;;0.50;;
51848;SDS011;38952;51.090;-1.832;2022-09-06T03:01:23;0.40;;;0.40;;
51848;SDS011;38952;51.090;-1.832;2022-09-06T03:03:49;0.20;;;0.20;;
51848;SDS011;38952;51.090;-1.832;2022-09-06T03:06:14;0.52;;;0.52;;
51848;SDS011;38952;51.090;-1.832;2022-09-06T03:08:40;0.50;;;0.50;;
51848;SDS011;38952;51.090;-1.832;2022-09-06T03:11:05;0.82;;;0.50;;
51848;SDS011;38952;51.090;-1.832;2022-09-06T03:13:31;0.60;;;0.60;;
51848;SDS011;38952;51.090;-1.832;2022-09-06T03:15:57;0.30;;;0.30;;
51848;SDS011;38952;51.090;-1.832;2022-09-06T03:18:24;0.32;;;0.32;;
51848;SDS011;38952;51.090;-1.832;2022-09-06T03:20:52;0.40;;;0.40;;
51848;SDS011;38952;51.090;-1.832;2022-09-06T03:23:18;0.40;;;0.40;;
51848;SDS011;38952;51.090;-1.832;2022-09-06T03:25:44;0.60;;;0.60;;
51848;SDS011;38952;51.090;-1.832;2022-09-06T03:28:10;1.17;;;1.08;;
51848;SDS011;38952;51.090;-1.832;2022-09-06T03:30:37;0.90;;;0.90;;
51848;SDS011;38952;51.090;-1.832;2022-09-06T03:33:03;0.63;;;0.63;;
51848;SDS011;38952;51.090;-1.832;2022-09-06T03:35:28;0.88;;;0.88;;
51848;SDS011;38952;51.090;-1.832;2022-09-06T03:37:54;0.70;;;0.60;;
51848;SDS011;38952;51.090;-1.832;2022-09-06T03:40:20;0.95;;;0.85;;
51848;SDS011;38952;51.090;-1.832;2022-09-06T03:42:45;1.23;;;0.90;;
51848;SDS011;38952;51.090;-1.832;2022-09-06T03:45:11;1.00;;;0.93;;
51848;SDS011;38952;51.090;-1.832;2022-09-06T03:47:39;1.08;;;0.93;;
51848;SDS011;38952;51.090;-1.832;2022-09-06T03:50:04;1.65;;;1.50;;
51848;SDS011;38952;51.090;-1.832;2022-09-06T03:52:30;1.90;;;1.70;;
51848;SDS011;38952;51.090;-1.832;2022-09-06T03:54:56;1.80;;;1.25;;
51848;SDS011;38952;51.090;-1.832;2022-09-06T03:57:21;1.10;;;1.00;;
51848;SDS011;38952;51.090;-1.832;2022-09-06T03:59:47;1.23;;;1.10;;
51848;SDS011;38952;51.090;-1.832;2022-09-06T04:02:12;1.63;;;1.35;;
51848;SDS011;38952;51.090;-1.832;2022-09-06T04:04:38;1.52;;;1.20;;
51848;SDS011;38952;51.090;-1.832;2022-09-06T04:07:03;2.70;;;2.38;;
51848;SDS011;38952;51.090;-1.832;2022-09-06T04:09:29;2.25;;;2.05;;
51848;SDS011;38952;51.090;-1.832;2022-09-06T04:11:54;2.92;;;2.58;;
51848;SDS011;38952;51.090;-1.832;2022-09-06T04:14:20;2.00;;;1.80;;
51848;SDS011;38952;51.090;-1.832;2022-09-06T04:16:45;1.92;;;1.80;;
51848;SDS011;38952;51.090;-1.832;2022-09-06T04:19:11;1.98;;;1.65;;
51848;SDS011;38952;51.090;-1.832;2022-09-06T04:21:36;4.07;;;2.50;;
51848;SDS011;38952;51.090;-1.832;2022-09-06T04:24:02;2.47;;;2.20;;
51848;SDS011;38952;51.090;-1.832;2022-09-06T04:26:28;2.53;;;2.33;;
51848;SDS011;38952;51.090;-1.832;2022-09-06T04:28:54;1.77;;;1.67;;
51848;SDS011;38952;51.090;-1.832;2022-09-06T04:31:19;4.07;;;3.70;;
51848;SDS011;38952;51.090;-1.832;2022-09-06T04:33:44;3.63;;;3.28;;
51848;SDS011;38952;51.090;-1.832;2022-09-06T04:36:10;3.10;;;2.80;;
51848;SDS011;38952;51.090;-1.832;2022-09-06T04:38:37;2.42;;;2.20;;
51848;SDS011;38952;51.090;-1.832;2022-09-06T04:41:05;2.30;;;2.10;;
51848;SDS011;38952;51.090;-1.832;2022-09-06T04:43:31;2.50;;;2.30;;
51848;SDS011;38952;51.090;-1.832;2022-09-06T04:46:08;3.40;;;3.10;;
51848;SDS011;38952;51.090;-1.832;2022-09-06T04:51:06;4.88;;;4.38;;
51848;SDS011;38952;51.090;-1.832;2022-09-06T04:53:32;5.28;;;3.97;;
51848;SDS011;38952;51.090;-1.832;2022-09-06T04:55:57;2.53;;;2.33;;
51848;SDS011;38952;51.090;-1.832;2022-09-06T04:58:23;6.45;;;4.45;;
51848;SDS011;38952;51.090;-1.832;2022-09-06T05:00:48;4.72;;;4.30;;
51848;SDS011;38952;51.090;-1.832;2022-09-06T05:03:14;3.65;;;3.20;;
51848;SDS011;38952;51.090;-1.832;2022-09-06T05:05:39;2.72;;;2.40;;
51848;SDS011;38952;51.090;-1.832;2022-09-06T05:08:05;3.42;;;3.10;;
51848;SDS011;38952;51.090;-1.832;2022-09-06T05:10:30;4.57;;;4.05;;
51848;SDS011;38952;51.090;-1.832;2022-09-06T05:12:56;8.77;;;7.00;;
51848;SDS011;38952;51.090;-1.832;2022-09-06T05:15:21;5.93;;;5.00;;
51848;SDS011;38952;51.090;-1.832;2022-09-06T05:17:50;5.75;;;5.03;;
51848;SDS011;38952;51.090;-1.832;2022-09-06T05:20:15;6.35;;;5.63;;
51848;SDS011;38952;51.090;-1.832;2022-09-06T05:22:41;6.20;;;5.22;;
51848;SDS011;38952;51.090;-1.832;2022-09-06T05:25:07;4.50;;;4.00;;
51848;SDS011;38952;51.090;-1.832;2022-09-06T05:27:33;3.30;;;3.00;;
51848;SDS011;38952;51.090;-1.832;2022-09-06T05:29:59;2.83;;;2.10;;
51848;SDS011;38952;51.090;-1.832;2022-09-06T05:32:25;2.13;;;1.92;;
51848;SDS011;38952;51.090;-1.832;2022-09-06T05:34:50;2.33;;;2.03;;
51848;SDS011;38952;51.090;-1.832;2022-09-06T05:37:16;1.50;;;1.40;;
51848;SDS011;38952;51.090;-1.832;2022-09-06T05:39:41;1.30;;;1.20;;
51848;SDS011;38952;51.090;-1.832;2022-09-06T05:42:06;1.20;;;1.10;;
51848;SDS011;38952;51.090;-1.832;2022-09-06T05:44:35;1.10;;;0.88;;
51848;SDS011;38952;51.090;-1.832;2022-09-06T05:47:01;1.27;;;1.13;;
51848;SDS011;38952;51.090;-1.832;2022-09-06T05:49:28;2.72;;;1.58;;
51848;SDS011;38952;51.090;-1.832;2022-09-06T05:51:54;1.35;;;1.25;;
51848;SDS011;38952;51.090;-1.832;2022-09-06T05:54:20;2.03;;;1.83;;
51848;SDS011;38952;51.090;-1.832;2022-09-06T05:56:45;2.05;;;1.85;;
51848;SDS011;38952;51.090;-1.832;2022-09-06T05:59:11;2.78;;;2.30;;
51848;SDS011;38952;51.090;-1.832;2022-09-06T06:01:45;4.18;;;3.65;;
51848;SDS011;38952;51.090;-1.832;2022-09-06T06:07:05;3.20;;;2.90;;
51848;SDS011;38952;51.090;-1.832;2022-09-06T06:09:30;3.40;;;3.10;;
51848;SDS011;38952;51.090;-1.832;2022-09-06T06:11:57;4.20;;;3.80;;
51848;SDS011;38952;51.090;-1.832;2022-09-06T06:14:22;3.33;;;3.03;;
51848;SDS011;38952;51.090;-1.832;2022-09-06T06:16:47;4.72;;;3.65;;
51848;SDS011;38952;51.090;-1.832;2022-09-06T06:19:13;6.47;;;5.40;;
51848;SDS011;38952;51.090;-1.832;2022-09-06T06:21:39;3.40;;;3.10;;
51848;SDS011;38952;51.090;-1.832;2022-09-06T06:24:05;3.53;;;3.22;;
51848;SDS011;38952;51.090;-1.832;2022-09-06T06:26:31;4.05;;;3.63;;
51848;SDS011;38952;51.090;-1.832;2022-09-06T06:28:59;7.57;;;5.22;;
51848;SDS011;38952;51.090;-1.832;2022-09-06T06:31:30;4.97;;;3.70;;
51848;SDS011;38952;51.090;-1.832;2022-09-06T06:33:57;7.65;;;5.38;;
51848;SDS011;38952;51.090;-1.832;2022-09-06T06:36:24;5.13;;;4.28;;
51848;SDS011;38952;51.090;-1.832;2022-09-06T06:38:51;5.95;;;4.57;;
51848;SDS011;38952;51.090;-1.832;2022-09-06T06:41:18;8.10;;;5.45;;
51848;SDS011;38952;51.090;-1.832;2022-09-06T06:43:49;9.07;;;5.65;;
51848;SDS011;38952;51.090;-1.832;2022-09-06T06:48:49;6.47;;;4.40;;
51848;SDS011;38952;51.090;-1.832;2022-09-06T06:51:15;6.10;;;3.50;;
51848;SDS011;38952;51.090;-1.832;2022-09-06T06:53:43;6.22;;;3.75;;
51848;SDS011;38952;51.090;-1.832;2022-09-06T06:56:18;4.32;;;3.60;;
51848;SDS011;38952;51.090;-1.832;2022-09-06T06:58:46;6.43;;;3.25;;
51848;SDS011;38952;51.090;-1.832;2022-09-06T07:01:13;6.30;;;3.10;;
51848;SDS011;38952;51.090;-1.832;2022-09-06T07:03:40;3.45;;;2.47;;
51848;SDS011;38952;51.090;-1.832;2022-09-06T07:06:06;3.60;;;2.15;;
51848;SDS011;38952;51.090;-1.832;2022-09-06T07:08:31;4.55;;;2.78;;
51848;SDS011;38952;51.090;-1.832;2022-09-06T07:10:57;5.07;;;2.40;;
51848;SDS011;38952;51.090;-1.832;2022-09-06T07:13:24;3.47;;;2.22;;
51848;SDS011;38952;51.090;-1.832;2022-09-06T07:16:11;4.55;;;1.88;;
51848;SDS011;38952;51.090;-1.832;2022-09-06T07:18:40;1.83;;;1.40;;
51848;SDS011;38952;51.090;-1.832;2022-09-06T07:21:10;2.13;;;1.40;;
51848;SDS011;38952;51.090;-1.832;2022-09-06T07:23:52;2.83;;;1.50;;
51848;SDS011;38952;51.090;-1.832;2022-09-06T07:26:43;5.85;;;1.52;;
51848;SDS011;38952;51.090;-1.832;2022-09-06T07:32:03;7.28;;;1.60;;
51848;SDS011;38952;51.090;-1.832;2022-09-06T07:34:29;6.97;;;1.10;;
51848;SDS011;38952;51.090;-1.832;2022-09-06T07:37:11;6.15;;;1.30;;
51848;SDS011;38952;51.090;-1.832;2022-09-06T07:39:40;3.13;;;0.75;;
51848;SDS011;38952;51.090;-1.832;2022-09-06T07:42:05;2.30;;;0.90;;
51848;SDS011;38952;51.090;-1.832;2022-09-06T07:44:37;2.05;;;1.02;;
51848;SDS011;38952;51.090;-1.832;2022-09-06T07:47:02;2.80;;;1.02;;
51848;SDS011;38952;51.090;-1.832;2022-09-06T07:49:31;4.43;;;1.10;;
51848;SDS011;38952;51.090;-1.832;2022-09-06T07:51:56;0.98;;;0.80;;
51848;SDS011;38952;51.090;-1.832;2022-09-06T07:54:22;3.65;;;1.40;;
51848;SDS011;38952;51.090;-1.832;2022-09-06T07:56:47;0.98;;;0.65;;
51848;SDS011;38952;51.090;-1.832;2022-09-06T07:59:13;6.30;;;1.33;;
51848;SDS011;38952;51.090;-1.832;2022-09-06T08:01:38;1.33;;;0.60;;
51848;SDS011;38952;51.090;-1.832;2022-09-06T08:04:08;5.85;;;1.20;;
51848;SDS011;38952;51.090;-1.832;2022-09-06T08:06:37;3.00;;;1.30;;
51848;SDS011;38952;51.090;-1.832;2022-09-06T08:09:05;4.75;;;1.05;;
51848;SDS011;38952;51.090;-1.832;2022-09-06T08:11:33;4.35;;;1.10;;
51848;SDS011;38952;51.090;-1.832;2022-09-06T08:14:01;6.47;;;1.10;;
51848;SDS011;38952;51.090;-1.832;2022-09-06T08:16:29;4.00;;;1.10;;
51848;SDS011;38952;51.090;-1.832;2022-09-06T08:18:57;9.10;;;1.45;;
51848;SDS011;38952;51.090;-1.832;2022-09-06T08:21:28;7.90;;;1.35;;
51848;SDS011;38952;51.090;-1.832;2022-09-06T08:23:59;4.43;;;1.20;;
51848;SDS011;38952;51.090;-1.832;2022-09-06T08:26:27;4.43;;;1.10;;
51848;SDS011;38952;51.090;-1.832;2022-09-06T08:28:55;1.08;;;0.70;;
51848;SDS011;38952;51.090;-1.832;2022-09-06T08:31:23;2.75;;;0.68;;
51848;SDS011;38952;51.090;-1.832;2022-09-06T08:33:49;4.20;;;1.13;;
51848;SDS011;38952;51.090;-1.832;2022-09-06T08:36:15;2.80;;;0.95;;
51848;SDS011;38952;51.090;-1.832;2022-09-06T08:38:41;9.63;;;1.73;;
51848;SDS011;38952;51.090;-1.832;2022-09-06T08:43:32;3.75;;;1.33;;
51848;SDS011;38952;51.090;-1.832;2022-09-06T08:45:57;2.80;;;1.08;;
51848;SDS011;38952;51.090;-1.832;2022-09-06T08:48:23;7.63;;;1.55;;
51848;SDS011;38952;51.090;-1.832;2022-09-06T08:53:36;5.35;;;1.40;;
51848;SDS011;38952;51.090;-1.832;2022-09-06T08:56:12;7.50;;;1.60;;
51848;SDS011;38952;51.090;-1.832;2022-09-06T09:02:33;9.75;;;1.42;;
51848;SDS011;38952;51.090;-1.832;2022-09-06T09:04:40;3.17;;;1.13;;
51848;SDS011;38952;51.090;-1.832;2022-09-06T09:07:21;8.48;;;1.75;;
51848;SDS011;38952;51.090;-1.832;2022-09-06T09:09:57;10.10;;;1.90;;
51848;SDS011;38952;51.090;-1.832;2022-09-06T09:12:26;6.20;;;1.40;;
51848;SDS011;38952;51.090;-1.832;2022-09-06T09:14:58;10.48;;;2.22;;
51848;SDS011;38952;51.090;-1.832;2022-09-06T09:17:29;12.90;;;1.90;;
51848;SDS011;38952;51.090;-1.832;2022-09-06T09:19:56;10.15;;;1.70;;
51848;SDS011;38952;51.090;-1.832;2022-09-06T09:22:22;8.02;;;1.95;;
51848;SDS011;38952;51.090;-1.832;2022-09-06T09:24:49;12.07;;;1.52;;
51848;SDS011;38952;51.090;-1.832;2022-09-06T09:27:17;8.43;;;1.67;;
51848;SDS011;38952;51.090;-1.832;2022-09-06T09:32:32;14.57;;;1.80;;
51848;SDS011;38952;51.090;-1.832;2022-09-06T09:37:45;12.43;;;1.60;;
51848;SDS011;38952;51.090;-1.832;2022-09-06T09:42:49;10.70;;;2.03;;
51848;SDS011;38952;51.090;-1.832;2022-09-06T09:47:45;8.05;;;1.80;;
51848;SDS011;38952;51.090;-1.832;2022-09-06T09:50:24;9.88;;;1.67;;
51848;SDS011;38952;51.090;-1.832;2022-09-06T09:53:07;7.82;;;1.30;;
51848;SDS011;38952;51.090;-1.832;2022-09-06T09:55:35;5.20;;;1.52;;
51848;SDS011;38952;51.090;-1.832;2022-09-06T09:58:01;10.38;;;2.10;;
51848;SDS011;38952;51.090;-1.832;2022-09-06T10:00:35;10.73;;;1.60;;
51848;SDS011;38952;51.090;-1.832;2022-09-06T10:03:10;4.28;;;1.27;;
51848;SDS011;38952;51.090;-1.832;2022-09-06T10:05:41;12.45;;;1.88;;
51848;SDS011;38952;51.090;-1.832;2022-09-06T10:08:11;8.07;;;1.70;;
51848;SDS011;38952;51.090;-1.832;2022-09-06T10:10:39;12.70;;;2.63;;
51848;SDS011;38952;51.090;-1.832;2022-09-06T10:15:46;17.27;;;2.95;;
51848;SDS011;38952;51.090;-1.832;2022-09-06T10:20:46;9.27;;;1.90;;
51848;SDS011;38952;51.090;-1.832;2022-09-06T10:26:05;7.60;;;1.75;;
51848;SDS011;38952;51.090;-1.832;2022-09-06T10:28:32;11.05;;;1.90;;
51848;SDS011;38952;51.090;-1.832;2022-09-06T10:36:28;13.00;;;2.88;;
51848;SDS011;38952;51.090;-1.832;2022-09-06T10:40:07;17.30;;;2.90;;
51848;SDS011;38952;51.090;-1.832;2022-09-06T10:42:26;14.10;;;2.88;;
51848;SDS011;38952;51.090;-1.832;2022-09-06T10:53:09;11.88;;;1.92;;
51848;SDS011;38952;51.090;-1.832;2022-09-06T10:55:38;7.10;;;1.75;;
51848;SDS011;38952;51.090;-1.832;2022-09-06T10:58:06;7.60;;;1.33;;
51848;SDS011;38952;51.090;-1.832;2022-09-06T11:00:37;6.28;;;1.23;;
51848;SDS011;38952;51.090;-1.832;2022-09-06T11:05:57;3.75;;;1.27;;
51848;SDS011;38952;51.090;-1.832;2022-09-06T11:08:39;8.32;;;1.73;;
51848;SDS011;38952;51.090;-1.832;2022-09-06T11:11:44;11.63;;;1.73;;
51848;SDS011;38952;51.090;-1.832;2022-09-06T11:14:14;10.70;;;1.58;;
51848;SDS011;38952;51.090;-1.832;2022-09-06T11:16:44;11.32;;;2.42;;
51848;SDS011;38952;51.090;-1.832;2022-09-06T11:19:20;14.27;;;2.58;;
51848;SDS011;38952;51.090;-1.832;2022-09-06T11:27:32;8.30;;;1.90;;
51848;SDS011;38952;51.090;-1.832;2022-09-06T11:30:00;9.63;;;1.85;;
51848;SDS011;38952;51.090;-1.832;2022-09-06T11:32:36;8.38;;;1.70;;
51848;SDS011;38952;51.090;-1.832;2022-09-06T11:38:56;10.32;;;2.70;;
51848;SDS011;38952;51.090;-1.832;2022-09-06T11:41:41;10.60;;;1.95;;
51848;SDS011;38952;51.090;-1.832;2022-09-06T11:47:43;14.40;;;2.15;;
51848;SDS011;38952;51.090;-1.832;2022-09-06T12:00:00;8.85;;;1.50;;
51848;SDS011;38952;51.090;-1.832;2022-09-06T12:02:58;7.10;;;1.75;;
51848;SDS011;38952;51.090;-1.832;2022-09-06T12:09:29;8.88;;;1.90;;
51848;SDS011;38952;51.090;-1.832;2022-09-06T12:15:56;9.57;;;1.80;;
51848;SDS011;38952;51.090;-1.832;2022-09-06T12:51:18;4.68;;;1.10;;
51848;SDS011;38952;51.090;-1.832;2022-09-06T12:54:27;10.30;;;1.88;;
51848;SDS011;38952;51.090;-1.832;2022-09-06T12:57:45;5.32;;;1.35;;
51848;SDS011;38952;51.090;-1.832;2022-09-06T13:00:12;5.53;;;1.30;;
51848;SDS011;38952;51.090;-1.832;2022-09-06T13:05:31;9.63;;;2.08;;
51848;SDS011;38952;51.090;-1.832;2022-09-06T13:08:26;9.52;;;1.98;;
51848;SDS011;38952;51.090;-1.832;2022-09-06T13:11:27;8.38;;;1.75;;
51848;SDS011;38952;51.090;-1.832;2022-09-06T13:14:26;7.90;;;1.75;;
51848;SDS011;38952;51.090;-1.832;2022-09-06T13:17:01;7.47;;;1.48;;
51848;SDS011;38952;51.090;-1.832;2022-09-06T13:22:00;7.53;;;1.33;;
51848;SDS011;38952;51.090;-1.832;2022-09-06T13:24:55;7.93;;;1.60;;
51848;SDS011;38952;51.090;-1.832;2022-09-06T13:33:06;10.05;;;1.38;;
51848;SDS011;38952;51.090;-1.832;2022-09-06T13:44:55;5.28;;;1.40;;
51848;SDS011;38952;51.090;-1.832;2022-09-06T13:48:10;6.82;;;1.50;;
51848;SDS011;38952;51.090;-1.832;2022-09-06T13:50:57;12.13;;;1.30;;
51848;SDS011;38952;51.090;-1.832;2022-09-06T13:54:02;9.85;;;1.75;;
51848;SDS011;38952;51.090;-1.832;2022-09-06T13:57:08;9.38;;;2.08;;
51848;SDS011;38952;51.090;-1.832;2022-09-06T14:00:15;11.82;;;1.73;;
51848;SDS011;38952;51.090;-1.832;2022-09-06T14:02:41;11.73;;;2.42;;
51848;SDS011;38952;51.090;-1.832;2022-09-06T14:05:30;9.70;;;2.08;;
51848;SDS011;38952;51.090;-1.832;2022-09-06T14:08:04;11.55;;;2.08;;
51848;SDS011;38952;51.090;-1.832;2022-09-06T14:10:45;7.68;;;2.00;;
51848;SDS011;38952;51.090;-1.832;2022-09-06T14:13:31;7.40;;;1.52;;
51848;SDS011;38952;51.090;-1.832;2022-09-06T14:15:57;12.85;;;1.83;;
51848;SDS011;38952;51.090;-1.832;2022-09-06T14:18:25;17.25;;;2.58;;
51848;SDS011;38952;51.090;-1.832;2022-09-06T14:21:05;5.57;;;1.45;;
51848;SDS011;38952;51.090;-1.832;2022-09-06T14:23:41;13.27;;;2.40;;
51848;SDS011;38952;51.090;-1.832;2022-09-06T14:26:11;11.52;;;1.70;;
51848;SDS011;38952;51.090;-1.832;2022-09-06T14:28:43;8.93;;;1.55;;
51848;SDS011;38952;51.090;-1.832;2022-09-06T14:31:20;9.45;;;2.15;;
51848;SDS011;38952;51.090;-1.832;2022-09-06T14:33:51;7.60;;;1.70;;
51848;SDS011;38952;51.090;-1.832;2022-09-06T14:36:22;8.80;;;2.35;;
51848;SDS011;38952;51.090;-1.832;2022-09-06T14:38:50;5.57;;;1.60;;
51848;SDS011;38952;51.090;-1.832;2022-09-06T14:41:27;11.00;;;1.48;;
51848;SDS011;38952;51.090;-1.832;2022-09-06T14:44:13;13.07;;;1.60;;
51848;SDS011;38952;51.090;-1.832;2022-09-06T14:46:53;11.60;;;1.50;;
51848;SDS011;38952;51.090;-1.832;2022-09-06T14:49:34;15.48;;;2.47;;
51848;SDS011;38952;51.090;-1.832;2022-09-06T14:52:00;10.25;;;2.28;;
51848;SDS011;38952;51.090;-1.832;2022-09-06T14:54:33;8.98;;;1.80;;
51848;SDS011;38952;51.090;-1.832;2022-09-06T14:57:42;8.80;;;1.83;;
51848;SDS011;38952;51.090;-1.832;2022-09-06T15:00:39;9.27;;;1.75;;
51848;SDS011;38952;51.090;-1.832;2022-09-06T15:03:04;8.38;;;1.50;;
51848;SDS011;38952;51.090;-1.832;2022-09-06T15:05:33;10.80;;;1.60;;
51848;SDS011;38952;51.090;-1.832;2022-09-06T15:07:58;8.65;;;1.88;;
51848;SDS011;38952;51.090;-1.832;2022-09-06T15:10:23;6.55;;;1.75;;
51848;SDS011;38952;51.090;-1.832;2022-09-06T15:12:50;8.88;;;2.28;;
51848;SDS011;38952;51.090;-1.832;2022-09-06T15:15:18;11.02;;;1.50;;
51848;SDS011;38952;51.090;-1.832;2022-09-06T15:17:43;11.18;;;2.00;;
51848;SDS011;38952;51.090;-1.832;2022-09-06T15:20:12;12.90;;;1.88;;
51848;SDS011;38952;51.090;-1.832;2022-09-06T15:22:37;4.68;;;1.42;;
51848;SDS011;38952;51.090;-1.832;2022-09-06T15:25:03;8.15;;;1.48;;
51848;SDS011;38952;51.090;-1.832;2022-09-06T15:27:34;6.20;;;1.70;;
51848;SDS011;38952;51.090;-1.832;2022-09-06T15:30:00;4.82;;;1.27;;
51848;SDS011;38952;51.090;-1.832;2022-09-06T15:32:25;13.02;;;1.92;;
51848;SDS011;38952;51.090;-1.832;2022-09-06T15:34:54;9.32;;;1.85;;
51848;SDS011;38952;51.090;-1.832;2022-09-06T15:37:19;9.05;;;1.30;;
51848;SDS011;38952;51.090;-1.832;2022-09-06T15:39:48;8.40;;;1.50;;
51848;SDS011;38952;51.090;-1.832;2022-09-06T15:42:13;9.70;;;1.58;;
51848;SDS011;38952;51.090;-1.832;2022-09-06T15:44:39;7.97;;;1.42;;
51848;SDS011;38952;51.090;-1.832;2022-09-06T15:47:04;13.25;;;2.33;;
51848;SDS011;38952;51.090;-1.832;2022-09-06T15:49:30;5.28;;;1.23;;
51848;SDS011;38952;51.090;-1.832;2022-09-06T15:51:57;3.65;;;0.93;;
51848;SDS011;38952;51.090;-1.832;2022-09-06T15:54:24;3.25;;;1.08;;
51848;SDS011;38952;51.090;-1.832;2022-09-06T15:57:09;6.63;;;1.10;;
51848;SDS011;38952;51.090;-1.832;2022-09-06T15:59:35;2.65;;;1.00;;
51848;SDS011;38952;51.090;-1.832;2022-09-06T16:02:01;6.97;;;1.10;;
51848;SDS011;38952;51.090;-1.832;2022-09-06T16:04:27;2.78;;;0.98;;
51848;SDS011;38952;51.090;-1.832;2022-09-06T16:06:52;9.57;;;1.55;;
51848;SDS011;38952;51.090;-1.832;2022-09-06T16:09:18;6.93;;;1.35;;
51848;SDS011;38952;51.090;-1.832;2022-09-06T16:11:43;7.13;;;1.27;;
51848;SDS011;38952;51.090;-1.832;2022-09-06T16:14:10;7.13;;;1.23;;
51848;SDS011;38952;51.090;-1.832;2022-09-06T16:16:37;6.57;;;1.20;;
51848;SDS011;38952;51.090;-1.832;2022-09-06T16:19:04;4.47;;;0.80;;
51848;SDS011;38952;51.090;-1.832;2022-09-06T16:21:31;4.78;;;1.05;;
51848;SDS011;38952;51.090;-1.832;2022-09-06T16:23:59;2.97;;;0.80;;
51848;SDS011;38952;51.090;-1.832;2022-09-06T16:26:27;6.40;;;1.60;;
51848;SDS011;38952;51.090;-1.832;2022-09-06T16:28:57;5.20;;;1.20;;
51848;SDS011;38952;51.090;-1.832;2022-09-06T16:31:23;8.55;;;1.40;;
51848;SDS011;38952;51.090;-1.832;2022-09-06T16:33:52;8.30;;;1.77;;
51848;SDS011;38952;51.090;-1.832;2022-09-06T16:36:18;10.45;;;1.70;;
51848;SDS011;38952;51.090;-1.832;2022-09-06T16:38:45;6.57;;;1.25;;
51848;SDS011;38952;51.090;-1.832;2022-09-06T16:43:50;9.95;;;2.08;;
51848;SDS011;38952;51.090;-1.832;2022-09-06T16:46:17;10.35;;;2.15;;
51848;SDS011;38952;51.090;-1.832;2022-09-06T16:48:50;18.25;;;2.22;;
51848;SDS011;38952;51.090;-1.832;2022-09-06T16:51:17;8.60;;;1.75;;
51848;SDS011;38952;51.090;-1.832;2022-09-06T16:53:44;3.88;;;1.00;;
51848;SDS011;38952;51.090;-1.832;2022-09-06T16:56:11;9.20;;;1.15;;
51848;SDS011;38952;51.090;-1.832;2022-09-06T16:58:39;6.20;;;2.42;;
51848;SDS011;38952;51.090;-1.832;2022-09-06T17:01:08;16.95;;;2.50;;
51848;SDS011;38952;51.090;-1.832;2022-09-06T17:03:37;10.07;;;1.58;;
51848;SDS011;38952;51.090;-1.832;2022-09-06T17:06:03;12.43;;;1.98;;
51848;SDS011;38952;51.090;-1.832;2022-09-06T17:08:30;14.70;;;2.67;;
51848;SDS011;38952;51.090;-1.832;2022-09-06T17:10:59;18.13;;;1.95;;
51848;SDS011;38952;51.090;-1.832;2022-09-06T17:13:29;11.43;;;1.50;;
51848;SDS011;38952;51.090;-1.832;2022-09-06T17:15:55;8.45;;;1.33;;
51848;SDS011;38952;51.090;-1.832;2022-09-06T17:18:39;12.48;;;2.05;;
51848;SDS011;38952;51.090;-1.832;2022-09-06T17:21:05;9.15;;;1.75;;
51848;SDS011;38952;51.090;-1.832;2022-09-06T17:23:32;10.20;;;1.77;;
51848;SDS011;38952;51.090;-1.832;2022-09-06T17:25:58;14.30;;;2.05;;
51848;SDS011;38952;51.090;-1.832;2022-09-06T17:28:25;10.13;;;1.70;;
51848;SDS011;38952;51.090;-1.832;2022-09-06T17:30:51;8.90;;;1.75;;
51848;SDS011;38952;51.090;-1.832;2022-09-06T17:33:17;6.40;;;1.52;;
51848;SDS011;38952;51.090;-1.832;2022-09-06T17:35:44;7.05;;;1.38;;